sensor_id;sensor_type;location;lat;lon;timestamp;P1;durP1;ratioP1;P2;durP2;ratioP2
32236;SDS011;18726;44.732;10.550;2022-09-21T00:02:49;8.38;;;7.57;;
32236;SDS011;18726;44.732;10.550;2022-09-21T00:06:00;9.93;;;8.55;;
32236;SDS011;18726;44.732;10.550;2022-09-21T00:09:07;9.82;;;8.82;;
32236;SDS011;18726;44.732;10.550;2022-09-21T00:12:11;8.50;;;7.28;;
32236;SDS011;18726;44.732;10.550;2022-09-21T00:15:15;7.07;;;6.40;;
32236;SDS011;18726;44.732;10.550;2022-09-21T00:18:22;8.90;;;7.85;;
32236;SDS011;18726;44.732;10.550;2022-09-21T00:21:26;7.93;;;7.28;;
32236;SDS011;18726;44.732;10.550;2022-09-21T00:24:30;10.15;;;6.75;;
32236;SDS011;18726;44.732;10.550;2022-09-21T00:27:33;7.65;;;6.88;;
32236;SDS011;18726;44.732;10.550;2022-09-21T00:30:37;7.85;;;6.18;;
32236;SDS011;18726;44.732;10.550;2022-09-21T00:33:41;7.28;;;6.68;;
32236;SDS011;18726;44.732;10.550;2022-09-21T00:36:46;6.78;;;6.15;;
32236;SDS011;18726;44.732;10.550;2022-09-21T00:39:49;7.68;;;6.65;;
32236;SDS011;18726;44.732;10.550;2022-09-21T00:42:53;8.45;;;7.57;;
32236;SDS011;18726;44.732;10.550;2022-09-21T00:46:00;9.00;;;8.30;;
32236;SDS011;18726;44.732;10.550;2022-09-21T00:49:05;10.55;;;8.30;;
32236;SDS011;18726;44.732;10.550;2022-09-21T00:52:10;9.18;;;7.85;;
32236;SDS011;18726;44.732;10.550;2022-09-21T00:55:20;8.38;;;7.65;;
32236;SDS011;18726;44.732;10.550;2022-09-21T00:58:29;9.93;;;8.68;;
32236;SDS011;18726;44.732;10.550;2022-09-21T01:01:36;9.25;;;8.15;;
32236;SDS011;18726;44.732;10.550;2022-09-21T01:04:40;12.00;;;7.50;;
32236;SDS011;18726;44.732;10.550;2022-09-21T01:07:44;7.53;;;6.40;;
32236;SDS011;18726;44.732;10.550;2022-09-21T01:21:07;7.22;;;5.97;;
32236;SDS011;18726;44.732;10.550;2022-09-21T01:30:56;6.87;;;6.27;;
32236;SDS011;18726;44.732;10.550;2022-09-21T01:34:06;11.27;;;7.30;;
32236;SDS011;18726;44.732;10.550;2022-09-21T01:37:16;7.57;;;6.85;;
32236;SDS011;18726;44.732;10.550;2022-09-21T01:40:26;7.70;;;6.90;;
32236;SDS011;18726;44.732;10.550;2022-09-21T01:43:35;7.13;;;6.47;;
32236;SDS011;18726;44.732;10.550;2022-09-21T01:46:41;8.13;;;7.10;;
32236;SDS011;18726;44.732;10.550;2022-09-21T01:49:49;8.15;;;7.38;;
32236;SDS011;18726;44.732;10.550;2022-09-21T01:53:58;9.38;;;6.47;;
32236;SDS011;18726;44.732;10.550;2022-09-21T01:57:10;7.30;;;6.30;;
32236;SDS011;18726;44.732;10.550;2022-09-21T02:00:14;7.03;;;6.43;;
32236;SDS011;18726;44.732;10.550;2022-09-21T02:03:25;7.57;;;6.70;;
32236;SDS011;18726;44.732;10.550;2022-09-21T02:06:32;17.55;;;8.38;;
32236;SDS011;18726;44.732;10.550;2022-09-21T02:09:36;8.88;;;6.38;;
32236;SDS011;18726;44.732;10.550;2022-09-21T02:12:40;6.50;;;5.65;;
32236;SDS011;18726;44.732;10.550;2022-09-21T02:22:16;7.43;;;6.70;;
32236;SDS011;18726;44.732;10.550;2022-09-21T02:25:40;7.93;;;7.05;;
32236;SDS011;18726;44.732;10.550;2022-09-21T02:29:12;8.60;;;6.43;;
32236;SDS011;18726;44.732;10.550;2022-09-21T02:32:34;13.18;;;7.70;;
32236;SDS011;18726;44.732;10.550;2022-09-21T02:43:00;17.48;;;8.50;;
32236;SDS011;18726;44.732;10.550;2022-09-21T02:46:12;12.00;;;9.23;;
32236;SDS011;18726;44.732;10.550;2022-09-21T02:49:28;11.63;;;8.85;;
32236;SDS011;18726;44.732;10.550;2022-09-21T02:52:36;11.75;;;9.65;;
32236;SDS011;18726;44.732;10.550;2022-09-21T02:55:44;10.30;;;9.13;;
32236;SDS011;18726;44.732;10.550;2022-09-21T02:58:49;11.43;;;10.27;;
32236;SDS011;18726;44.732;10.550;2022-09-21T03:01:58;9.88;;;9.10;;
32236;SDS011;18726;44.732;10.550;2022-09-21T03:05:02;15.13;;;9.18;;
32236;SDS011;18726;44.732;10.550;2022-09-21T03:08:06;9.68;;;8.75;;
32236;SDS011;18726;44.732;10.550;2022-09-21T03:11:10;11.18;;;10.23;;
32236;SDS011;18726;44.732;10.550;2022-09-21T03:14:19;10.85;;;9.75;;
32236;SDS011;18726;44.732;10.550;2022-09-21T03:17:22;10.90;;;9.82;;
32236;SDS011;18726;44.732;10.550;2022-09-21T03:20:26;14.25;;;9.35;;
32236;SDS011;18726;44.732;10.550;2022-09-21T03:23:30;13.93;;;8.95;;
32236;SDS011;18726;44.732;10.550;2022-09-21T03:26:34;11.30;;;10.32;;
32236;SDS011;18726;44.732;10.550;2022-09-21T03:29:39;11.38;;;10.32;;
32236;SDS011;18726;44.732;10.550;2022-09-21T03:32:42;11.38;;;10.18;;
32236;SDS011;18726;44.732;10.550;2022-09-21T03:35:49;12.93;;;11.45;;
32236;SDS011;18726;44.732;10.550;2022-09-21T03:38:53;12.15;;;10.93;;
32236;SDS011;18726;44.732;10.550;2022-09-21T03:41:57;12.30;;;11.10;;
32236;SDS011;18726;44.732;10.550;2022-09-21T03:45:00;11.55;;;10.48;;
32236;SDS011;18726;44.732;10.550;2022-09-21T03:48:05;13.63;;;12.00;;
32236;SDS011;18726;44.732;10.550;2022-09-21T03:51:08;14.00;;;12.60;;
32236;SDS011;18726;44.732;10.550;2022-09-21T03:54:12;13.73;;;11.98;;
32236;SDS011;18726;44.732;10.550;2022-09-21T03:57:15;13.07;;;11.35;;
32236;SDS011;18726;44.732;10.550;2022-09-21T04:00:19;11.57;;;9.95;;
32236;SDS011;18726;44.732;10.550;2022-09-21T04:03:22;11.02;;;10.05;;
32236;SDS011;18726;44.732;10.550;2022-09-21T04:06:26;11.75;;;10.65;;
32236;SDS011;18726;44.732;10.550;2022-09-21T04:09:29;10.43;;;9.50;;
32236;SDS011;18726;44.732;10.550;2022-09-21T04:12:33;13.07;;;11.88;;
32236;SDS011;18726;44.732;10.550;2022-09-21T04:15:38;16.00;;;13.35;;
32236;SDS011;18726;44.732;10.550;2022-09-21T04:18:41;11.65;;;10.55;;
32236;SDS011;18726;44.732;10.550;2022-09-21T04:21:45;11.88;;;10.77;;
32236;SDS011;18726;44.732;10.550;2022-09-21T04:24:48;11.43;;;10.40;;
32236;SDS011;18726;44.732;10.550;2022-09-21T04:27:51;9.95;;;9.05;;
32236;SDS011;18726;44.732;10.550;2022-09-21T04:30:55;10.05;;;8.00;;
32236;SDS011;18726;44.732;10.550;2022-09-21T04:33:58;9.82;;;8.88;;
32236;SDS011;18726;44.732;10.550;2022-09-21T04:37:01;9.52;;;8.70;;
32236;SDS011;18726;44.732;10.550;2022-09-21T04:40:05;9.90;;;8.70;;
32236;SDS011;18726;44.732;10.550;2022-09-21T04:43:09;8.23;;;7.47;;
32236;SDS011;18726;44.732;10.550;2022-09-21T04:46:13;9.20;;;8.40;;
32236;SDS011;18726;44.732;10.550;2022-09-21T04:49:18;8.70;;;7.35;;
32236;SDS011;18726;44.732;10.550;2022-09-21T04:52:22;8.50;;;7.68;;
32236;SDS011;18726;44.732;10.550;2022-09-21T04:55:26;9.95;;;7.03;;
32236;SDS011;18726;44.732;10.550;2022-09-21T05:02:48;8.07;;;6.50;;
32236;SDS011;18726;44.732;10.550;2022-09-21T05:05:54;8.77;;;6.35;;
32236;SDS011;18726;44.732;10.550;2022-09-21T05:08:59;7.70;;;6.97;;
32236;SDS011;18726;44.732;10.550;2022-09-21T05:15:24;6.80;;;6.10;;
32236;SDS011;18726;44.732;10.550;2022-09-21T05:18:28;7.55;;;6.95;;
32236;SDS011;18726;44.732;10.550;2022-09-21T05:21:31;7.60;;;6.90;;
32236;SDS011;18726;44.732;10.550;2022-09-21T05:24:35;7.22;;;6.57;;
32236;SDS011;18726;44.732;10.550;2022-09-21T05:27:38;11.02;;;6.88;;
32236;SDS011;18726;44.732;10.550;2022-09-21T05:31:03;9.82;;;7.13;;
32236;SDS011;18726;44.732;10.550;2022-09-21T05:37:39;8.77;;;6.78;;
32236;SDS011;18726;44.732;10.550;2022-09-21T05:40:46;8.40;;;6.32;;
32236;SDS011;18726;44.732;10.550;2022-09-21T05:43:52;5.25;;;4.78;;
32236;SDS011;18726;44.732;10.550;2022-09-21T05:47:11;11.30;;;5.30;;
32236;SDS011;18726;44.732;10.550;2022-09-21T05:53:58;5.35;;;4.03;;
32236;SDS011;18726;44.732;10.550;2022-09-21T05:57:10;4.85;;;3.60;;
32236;SDS011;18726;44.732;10.550;2022-09-21T06:00:44;4.22;;;3.83;;
32236;SDS011;18726;44.732;10.550;2022-09-21T06:04:07;4.95;;;3.90;;
32236;SDS011;18726;44.732;10.550;2022-09-21T06:07:14;6.32;;;3.58;;
32236;SDS011;18726;44.732;10.550;2022-09-21T06:10:19;5.60;;;3.42;;
32236;SDS011;18726;44.732;10.550;2022-09-21T06:13:22;5.97;;;4.07;;
32236;SDS011;18726;44.732;10.550;2022-09-21T06:16:26;6.00;;;4.55;;
32236;SDS011;18726;44.732;10.550;2022-09-21T06:19:30;4.22;;;3.90;;
32236;SDS011;18726;44.732;10.550;2022-09-21T06:22:34;6.22;;;3.80;;
32236;SDS011;18726;44.732;10.550;2022-09-21T06:25:38;5.88;;;3.92;;
32236;SDS011;18726;44.732;10.550;2022-09-21T06:28:41;8.77;;;4.13;;
32236;SDS011;18726;44.732;10.550;2022-09-21T06:31:45;6.22;;;4.32;;
32236;SDS011;18726;44.732;10.550;2022-09-21T06:34:49;8.57;;;4.20;;
32236;SDS011;18726;44.732;10.550;2022-09-21T06:37:56;4.53;;;3.90;;
32236;SDS011;18726;44.732;10.550;2022-09-21T06:41:02;4.70;;;3.90;;
32236;SDS011;18726;44.732;10.550;2022-09-21T06:44:06;6.45;;;4.55;;
32236;SDS011;18726;44.732;10.550;2022-09-21T06:47:10;5.00;;;4.05;;
32236;SDS011;18726;44.732;10.550;2022-09-21T06:50:13;6.00;;;4.00;;
32236;SDS011;18726;44.732;10.550;2022-09-21T06:53:18;8.20;;;4.85;;
32236;SDS011;18726;44.732;10.550;2022-09-21T06:56:22;8.75;;;4.53;;
32236;SDS011;18726;44.732;10.550;2022-09-21T06:59:26;8.00;;;4.55;;
32236;SDS011;18726;44.732;10.550;2022-09-21T07:02:29;9.30;;;6.85;;
32236;SDS011;18726;44.732;10.550;2022-09-21T07:05:32;6.05;;;5.20;;
32236;SDS011;18726;44.732;10.550;2022-09-21T07:08:37;7.38;;;5.07;;
32236;SDS011;18726;44.732;10.550;2022-09-21T07:11:42;7.00;;;4.70;;
32236;SDS011;18726;44.732;10.550;2022-09-21T07:14:45;6.80;;;4.28;;
32236;SDS011;18726;44.732;10.550;2022-09-21T07:17:49;8.30;;;4.40;;
32236;SDS011;18726;44.732;10.550;2022-09-21T07:20:52;5.45;;;4.30;;
32236;SDS011;18726;44.732;10.550;2022-09-21T07:23:57;4.97;;;3.67;;
32236;SDS011;18726;44.732;10.550;2022-09-21T07:27:01;6.47;;;4.05;;
32236;SDS011;18726;44.732;10.550;2022-09-21T07:30:06;4.00;;;3.60;;
32236;SDS011;18726;44.732;10.550;2022-09-21T07:33:10;4.78;;;3.90;;
32236;SDS011;18726;44.732;10.550;2022-09-21T07:36:14;3.17;;;2.90;;
32236;SDS011;18726;44.732;10.550;2022-09-21T07:39:19;3.55;;;2.83;;
32236;SDS011;18726;44.732;10.550;2022-09-21T07:42:23;3.50;;;2.83;;
32236;SDS011;18726;44.732;10.550;2022-09-21T07:45:28;3.22;;;2.60;;
32236;SDS011;18726;44.732;10.550;2022-09-21T07:48:33;3.30;;;3.00;;
32236;SDS011;18726;44.732;10.550;2022-09-21T07:51:36;2.95;;;2.75;;
32236;SDS011;18726;44.732;10.550;2022-09-21T07:54:40;2.63;;;2.38;;
32236;SDS011;18726;44.732;10.550;2022-09-21T07:57:44;4.35;;;2.70;;
32236;SDS011;18726;44.732;10.550;2022-09-21T08:01:26;2.30;;;2.13;;
32236;SDS011;18726;44.732;10.550;2022-09-21T08:04:30;2.58;;;2.42;;
32236;SDS011;18726;44.732;10.550;2022-09-21T08:07:33;2.95;;;2.75;;
32236;SDS011;18726;44.732;10.550;2022-09-21T08:10:37;3.03;;;1.92;;
32236;SDS011;18726;44.732;10.550;2022-09-21T08:13:41;2.30;;;2.10;;
32236;SDS011;18726;44.732;10.550;2022-09-21T08:16:45;1.95;;;1.85;;
32236;SDS011;18726;44.732;10.550;2022-09-21T08:19:50;1.92;;;1.83;;
32236;SDS011;18726;44.732;10.550;2022-09-21T08:22:54;1.95;;;1.80;;
32236;SDS011;18726;44.732;10.550;2022-09-21T08:25:58;3.95;;;2.42;;
32236;SDS011;18726;44.732;10.550;2022-09-21T08:29:03;2.45;;;1.95;;
32236;SDS011;18726;44.732;10.550;2022-09-21T08:32:08;2.78;;;2.03;;
32236;SDS011;18726;44.732;10.550;2022-09-21T08:35:12;4.68;;;1.60;;
32236;SDS011;18726;44.732;10.550;2022-09-21T08:38:16;1.85;;;1.75;;
32236;SDS011;18726;44.732;10.550;2022-09-21T08:41:23;2.58;;;2.05;;
32236;SDS011;18726;44.732;10.550;2022-09-21T08:44:47;2.00;;;1.85;;
32236;SDS011;18726;44.732;10.550;2022-09-21T08:47:55;3.13;;;2.28;;
32236;SDS011;18726;44.732;10.550;2022-09-21T08:51:06;2.10;;;1.90;;
32236;SDS011;18726;44.732;10.550;2022-09-21T08:55:00;2.10;;;2.00;;
32236;SDS011;18726;44.732;10.550;2022-09-21T08:57:43;2.83;;;1.80;;
32236;SDS011;18726;44.732;10.550;2022-09-21T09:00:46;3.30;;;1.88;;
32236;SDS011;18726;44.732;10.550;2022-09-21T09:20:55;2.75;;;2.05;;
32236;SDS011;18726;44.732;10.550;2022-09-21T09:24:02;2.65;;;2.45;;
32236;SDS011;18726;44.732;10.550;2022-09-21T09:27:18;2.15;;;1.95;;
32236;SDS011;18726;44.732;10.550;2022-09-21T09:30:28;2.45;;;2.22;;
32236;SDS011;18726;44.732;10.550;2022-09-21T09:37:13;4.05;;;2.75;;
32236;SDS011;18726;44.732;10.550;2022-09-21T09:40:22;2.15;;;1.92;;
32236;SDS011;18726;44.732;10.550;2022-09-21T09:43:47;4.57;;;2.03;;
32236;SDS011;18726;44.732;10.550;2022-09-21T09:50:40;1.90;;;1.73;;
32236;SDS011;18726;44.732;10.550;2022-09-21T09:53:44;2.22;;;2.03;;
32236;SDS011;18726;44.732;10.550;2022-09-21T09:56:48;2.40;;;2.20;;
32236;SDS011;18726;44.732;10.550;2022-09-21T09:59:54;3.75;;;2.13;;
32236;SDS011;18726;44.732;10.550;2022-09-21T10:03:18;1.70;;;1.60;;
32236;SDS011;18726;44.732;10.550;2022-09-21T10:06:29;7.72;;;2.00;;
32236;SDS011;18726;44.732;10.550;2022-09-21T10:09:34;3.40;;;1.90;;
32236;SDS011;18726;44.732;10.550;2022-09-21T10:12:38;2.22;;;1.92;;
32236;SDS011;18726;44.732;10.550;2022-09-21T10:15:52;1.90;;;1.80;;
32236;SDS011;18726;44.732;10.550;2022-09-21T10:18:59;4.20;;;2.00;;
32236;SDS011;18726;44.732;10.550;2022-09-21T10:22:04;2.78;;;2.10;;
32236;SDS011;18726;44.732;10.550;2022-09-21T10:25:14;1.80;;;1.70;;
32236;SDS011;18726;44.732;10.550;2022-09-21T10:28:20;2.13;;;1.95;;
32236;SDS011;18726;44.732;10.550;2022-09-21T10:31:27;3.63;;;2.38;;
32236;SDS011;18726;44.732;10.550;2022-09-21T10:34:33;4.85;;;2.20;;
32236;SDS011;18726;44.732;10.550;2022-09-21T10:37:47;2.50;;;2.30;;
32236;SDS011;18726;44.732;10.550;2022-09-21T10:40:55;4.63;;;2.30;;
32236;SDS011;18726;44.732;10.550;2022-09-21T10:43:59;2.75;;;2.42;;
32236;SDS011;18726;44.732;10.550;2022-09-21T10:47:29;2.63;;;2.20;;
32236;SDS011;18726;44.732;10.550;2022-09-21T10:50:42;2.42;;;2.20;;
32236;SDS011;18726;44.732;10.550;2022-09-21T10:53:47;2.42;;;2.20;;
32236;SDS011;18726;44.732;10.550;2022-09-21T10:56:52;1.98;;;1.88;;
32236;SDS011;18726;44.732;10.550;2022-09-21T11:00:10;4.05;;;2.00;;
32236;SDS011;18726;44.732;10.550;2022-09-21T11:06:36;2.25;;;2.13;;
32236;SDS011;18726;44.732;10.550;2022-09-21T11:13:15;2.50;;;2.30;;
32236;SDS011;18726;44.732;10.550;2022-09-21T11:16:57;3.15;;;2.30;;
32236;SDS011;18726;44.732;10.550;2022-09-21T11:20:14;2.25;;;2.13;;
32236;SDS011;18726;44.732;10.550;2022-09-21T11:27:14;3.28;;;2.47;;
32236;SDS011;18726;44.732;10.550;2022-09-21T11:30:15;5.88;;;2.67;;
32236;SDS011;18726;44.732;10.550;2022-09-21T11:33:40;6.35;;;2.70;;
32236;SDS011;18726;44.732;10.550;2022-09-21T11:40:18;2.22;;;2.03;;
32236;SDS011;18726;44.732;10.550;2022-09-21T11:43:49;7.88;;;2.40;;
32236;SDS011;18726;44.732;10.550;2022-09-21T12:21:21;3.15;;;2.08;;
32236;SDS011;18726;44.732;10.550;2022-09-21T12:24:51;4.68;;;2.40;;
32236;SDS011;18726;44.732;10.550;2022-09-21T12:28:01;2.38;;;2.15;;
32236;SDS011;18726;44.732;10.550;2022-09-21T12:31:14;4.20;;;2.43;;
32236;SDS011;18726;44.732;10.550;2022-09-21T12:34:25;2.92;;;2.20;;
32236;SDS011;18726;44.732;10.550;2022-09-21T12:37:39;4.65;;;2.13;;
32236;SDS011;18726;44.732;10.550;2022-09-21T12:41:01;2.28;;;1.90;;
32236;SDS011;18726;44.732;10.550;2022-09-21T12:44:19;3.63;;;2.33;;
32236;SDS011;18726;44.732;10.550;2022-09-21T12:57:36;4.82;;;2.10;;
32236;SDS011;18726;44.732;10.550;2022-09-21T13:00:52;3.28;;;2.10;;
32236;SDS011;18726;44.732;10.550;2022-09-21T13:11:01;5.97;;;1.80;;
32236;SDS011;18726;44.732;10.550;2022-09-21T13:14:09;5.60;;;2.08;;
32236;SDS011;18726;44.732;10.550;2022-09-21T13:17:21;2.38;;;2.17;;
32236;SDS011;18726;44.732;10.550;2022-09-21T13:20:32;3.42;;;1.83;;
32236;SDS011;18726;44.732;10.550;2022-09-21T13:23:38;2.20;;;1.95;;
32236;SDS011;18726;44.732;10.550;2022-09-21T13:26:51;7.53;;;2.03;;
32236;SDS011;18726;44.732;10.550;2022-09-21T13:33:38;4.53;;;2.05;;
32236;SDS011;18726;44.732;10.550;2022-09-21T13:36:42;3.47;;;1.55;;
32236;SDS011;18726;44.732;10.550;2022-09-21T13:42:52;1.65;;;1.55;;
32236;SDS011;18726;44.732;10.550;2022-09-21T13:45:56;2.88;;;2.20;;
32236;SDS011;18726;44.732;10.550;2022-09-21T13:49:01;4.18;;;2.33;;
32236;SDS011;18726;44.732;10.550;2022-09-21T13:53:04;5.75;;;1.85;;
32236;SDS011;18726;44.732;10.550;2022-09-21T13:55:53;2.50;;;1.80;;
32236;SDS011;18726;44.732;10.550;2022-09-21T13:59:02;2.22;;;1.80;;
32236;SDS011;18726;44.732;10.550;2022-09-21T14:02:17;2.95;;;2.20;;
32236;SDS011;18726;44.732;10.550;2022-09-21T14:05:45;3.95;;;1.95;;
32236;SDS011;18726;44.732;10.550;2022-09-21T14:08:55;1.90;;;1.80;;
32236;SDS011;18726;44.732;10.550;2022-09-21T14:12:02;1.80;;;1.70;;
32236;SDS011;18726;44.732;10.550;2022-09-21T14:18:20;2.63;;;1.77;;
32236;SDS011;18726;44.732;10.550;2022-09-21T14:21:37;2.17;;;1.88;;
32236;SDS011;18726;44.732;10.550;2022-09-21T14:38:46;4.47;;;2.40;;
32236;SDS011;18726;44.732;10.550;2022-09-21T14:41:55;4.00;;;2.00;;
32236;SDS011;18726;44.732;10.550;2022-09-21T14:45:03;2.20;;;1.73;;
32236;SDS011;18726;44.732;10.550;2022-09-21T14:48:27;1.92;;;1.83;;
32236;SDS011;18726;44.732;10.550;2022-09-21T14:58:29;2.05;;;1.92;;
32236;SDS011;18726;44.732;10.550;2022-09-21T15:01:58;1.98;;;1.88;;
32236;SDS011;18726;44.732;10.550;2022-09-21T15:05:11;1.55;;;1.45;;
32236;SDS011;18726;44.732;10.550;2022-09-21T15:08:36;1.83;;;1.73;;
32236;SDS011;18726;44.732;10.550;2022-09-21T15:24:00;6.25;;;2.13;;
32236;SDS011;18726;44.732;10.550;2022-09-21T15:39:44;2.60;;;1.90;;
32236;SDS011;18726;44.732;10.550;2022-09-21T15:43:04;1.90;;;1.80;;
32236;SDS011;18726;44.732;10.550;2022-09-21T15:46:14;1.50;;;1.40;;
32236;SDS011;18726;44.732;10.550;2022-09-21T15:49:20;2.92;;;2.00;;
32236;SDS011;18726;44.732;10.550;2022-09-21T15:52:35;3.53;;;1.92;;
32236;SDS011;18726;44.732;10.550;2022-09-21T15:55:46;2.42;;;2.33;;
32236;SDS011;18726;44.732;10.550;2022-09-21T15:58:51;3.53;;;1.65;;
32236;SDS011;18726;44.732;10.550;2022-09-21T16:02:10;1.95;;;1.60;;
32236;SDS011;18726;44.732;10.550;2022-09-21T16:20:15;1.95;;;1.80;;
32236;SDS011;18726;44.732;10.550;2022-09-21T16:35:25;1.77;;;1.67;;
32236;SDS011;18726;44.732;10.550;2022-09-21T16:38:35;5.22;;;2.25;;
32236;SDS011;18726;44.732;10.550;2022-09-21T16:41:49;1.95;;;1.85;;
32236;SDS011;18726;44.732;10.550;2022-09-21T16:44:55;1.75;;;1.65;;
32236;SDS011;18726;44.732;10.550;2022-09-21T16:47:59;1.75;;;1.65;;
32236;SDS011;18726;44.732;10.550;2022-09-21T16:51:10;1.67;;;1.58;;
32236;SDS011;18726;44.732;10.550;2022-09-21T16:54:15;2.22;;;2.00;;
32236;SDS011;18726;44.732;10.550;2022-09-21T16:57:21;2.65;;;2.42;;
32236;SDS011;18726;44.732;10.550;2022-09-21T17:00:26;2.75;;;2.00;;
32236;SDS011;18726;44.732;10.550;2022-09-21T17:03:34;2.83;;;2.00;;
32236;SDS011;18726;44.732;10.550;2022-09-21T17:06:38;2.58;;;1.83;;
32236;SDS011;18726;44.732;10.550;2022-09-21T17:09:43;3.40;;;1.90;;
32236;SDS011;18726;44.732;10.550;2022-09-21T17:12:49;2.65;;;1.83;;
32236;SDS011;18726;44.732;10.550;2022-09-21T17:15:55;3.67;;;2.05;;
32236;SDS011;18726;44.732;10.550;2022-09-21T17:19:00;5.38;;;1.83;;
32236;SDS011;18726;44.732;10.550;2022-09-21T17:22:05;2.00;;;1.90;;
32236;SDS011;18726;44.732;10.550;2022-09-21T17:25:09;2.35;;;2.15;;
32236;SDS011;18726;44.732;10.550;2022-09-21T17:28:20;1.90;;;1.80;;
32236;SDS011;18726;44.732;10.550;2022-09-21T17:31:27;2.33;;;1.90;;
32236;SDS011;18726;44.732;10.550;2022-09-21T17:34:31;7.47;;;2.45;;
32236;SDS011;18726;44.732;10.550;2022-09-21T17:37:37;3.85;;;2.20;;
32236;SDS011;18726;44.732;10.550;2022-09-21T17:40:41;2.13;;;2.00;;
32236;SDS011;18726;44.732;10.550;2022-09-21T17:43:54;2.38;;;2.17;;
32236;SDS011;18726;44.732;10.550;2022-09-21T17:47:01;3.08;;;2.30;;
32236;SDS011;18726;44.732;10.550;2022-09-21T17:53:26;2.58;;;2.35;;
32236;SDS011;18726;44.732;10.550;2022-09-21T17:56:46;2.45;;;2.35;;
32236;SDS011;18726;44.732;10.550;2022-09-21T17:59:59;3.03;;;2.42;;
32236;SDS011;18726;44.732;10.550;2022-09-21T18:03:24;2.92;;;2.42;;
32236;SDS011;18726;44.732;10.550;2022-09-21T18:06:31;3.28;;;2.97;;
32236;SDS011;18726;44.732;10.550;2022-09-21T18:09:36;3.53;;;3.22;;
32236;SDS011;18726;44.732;10.550;2022-09-21T18:25:36;3.03;;;2.80;;
32236;SDS011;18726;44.732;10.550;2022-09-21T18:28:49;2.75;;;2.55;;
32236;SDS011;18726;44.732;10.550;2022-09-21T18:35:46;3.25;;;2.95;;
32236;SDS011;18726;44.732;10.550;2022-09-21T18:46:17;5.22;;;3.15;;
32236;SDS011;18726;44.732;10.550;2022-09-21T18:49:38;3.42;;;2.80;;
32236;SDS011;18726;44.732;10.550;2022-09-21T18:52:52;2.53;;;2.33;;
32236;SDS011;18726;44.732;10.550;2022-09-21T18:56:15;4.10;;;3.10;;
32236;SDS011;18726;44.732;10.550;2022-09-21T18:59:21;3.58;;;2.75;;
32236;SDS011;18726;44.732;10.550;2022-09-21T19:02:25;2.95;;;2.50;;
32236;SDS011;18726;44.732;10.550;2022-09-21T19:05:30;2.70;;;2.50;;
32236;SDS011;18726;44.732;10.550;2022-09-21T19:08:40;3.05;;;2.78;;
32236;SDS011;18726;44.732;10.550;2022-09-21T19:15:16;3.10;;;2.90;;
32236;SDS011;18726;44.732;10.550;2022-09-21T19:24:51;3.30;;;2.97;;
32236;SDS011;18726;44.732;10.550;2022-09-21T19:27:59;2.60;;;2.40;;
32236;SDS011;18726;44.732;10.550;2022-09-21T19:31:13;3.70;;;3.33;;
32236;SDS011;18726;44.732;10.550;2022-09-21T19:45:15;3.67;;;3.13;;
32236;SDS011;18726;44.732;10.550;2022-09-21T19:48:27;3.38;;;3.10;;
32236;SDS011;18726;44.732;10.550;2022-09-21T19:51:51;9.75;;;5.28;;
32236;SDS011;18726;44.732;10.550;2022-09-21T19:54:58;7.90;;;4.07;;
32236;SDS011;18726;44.732;10.550;2022-09-21T19:58:20;4.03;;;3.55;;
32236;SDS011;18726;44.732;10.550;2022-09-21T20:02:01;3.35;;;3.08;;
32236;SDS011;18726;44.732;10.550;2022-09-21T20:05:12;3.22;;;2.92;;
32236;SDS011;18726;44.732;10.550;2022-09-21T20:15:11;5.38;;;3.60;;
32236;SDS011;18726;44.732;10.550;2022-09-21T20:19:11;5.13;;;3.70;;
32236;SDS011;18726;44.732;10.550;2022-09-21T20:21:58;5.28;;;3.60;;
32236;SDS011;18726;44.732;10.550;2022-09-21T20:28:34;4.20;;;3.47;;
32236;SDS011;18726;44.732;10.550;2022-09-21T20:31:38;3.95;;;3.65;;
32236;SDS011;18726;44.732;10.550;2022-09-21T20:34:42;4.18;;;3.38;;
32236;SDS011;18726;44.732;10.550;2022-09-21T20:41:17;6.00;;;4.00;;
32236;SDS011;18726;44.732;10.550;2022-09-21T20:44:30;4.20;;;3.88;;
32236;SDS011;18726;44.732;10.550;2022-09-21T20:47:36;5.13;;;3.20;;
32236;SDS011;18726;44.732;10.550;2022-09-21T20:50:41;5.28;;;3.78;;
32236;SDS011;18726;44.732;10.550;2022-09-21T20:54:10;4.00;;;3.60;;
32236;SDS011;18726;44.732;10.550;2022-09-21T20:57:26;4.60;;;4.05;;
32236;SDS011;18726;44.732;10.550;2022-09-21T21:00:30;4.43;;;4.03;;
32236;SDS011;18726;44.732;10.550;2022-09-21T21:03:36;6.40;;;3.50;;
32236;SDS011;18726;44.732;10.550;2022-09-21T21:06:40;4.00;;;3.67;;
32236;SDS011;18726;44.732;10.550;2022-09-21T21:09:44;5.95;;;4.25;;
32236;SDS011;18726;44.732;10.550;2022-09-21T21:12:48;4.22;;;3.83;;
32236;SDS011;18726;44.732;10.550;2022-09-21T21:15:53;6.22;;;3.88;;
32236;SDS011;18726;44.732;10.550;2022-09-21T21:18:57;5.40;;;3.70;;
32236;SDS011;18726;44.732;10.550;2022-09-21T21:22:01;5.10;;;3.88;;
32236;SDS011;18726;44.732;10.550;2022-09-21T21:25:04;11.88;;;4.18;;
32236;SDS011;18726;44.732;10.550;2022-09-21T21:28:08;6.07;;;3.97;;
32236;SDS011;18726;44.732;10.550;2022-09-21T21:31:13;5.07;;;4.18;;
32236;SDS011;18726;44.732;10.550;2022-09-21T21:34:17;4.05;;;3.75;;
32236;SDS011;18726;44.732;10.550;2022-09-21T21:37:21;4.32;;;3.97;;
32236;SDS011;18726;44.732;10.550;2022-09-21T21:40:29;4.05;;;3.65;;
32236;SDS011;18726;44.732;10.550;2022-09-21T21:43:34;4.38;;;3.95;;
32236;SDS011;18726;44.732;10.550;2022-09-21T21:46:38;4.68;;;4.13;;
32236;SDS011;18726;44.732;10.550;2022-09-21T21:49:41;4.50;;;4.00;;
32236;SDS011;18726;44.732;10.550;2022-09-21T21:52:45;6.05;;;4.47;;
32236;SDS011;18726;44.732;10.550;2022-09-21T21:55:49;4.47;;;4.10;;
32236;SDS011;18726;44.732;10.550;2022-09-21T21:58:52;4.70;;;4.30;;
32236;SDS011;18726;44.732;10.550;2022-09-21T22:01:57;4.25;;;3.85;;
32236;SDS011;18726;44.732;10.550;2022-09-21T22:05:01;5.05;;;3.85;;
32236;SDS011;18726;44.732;10.550;2022-09-21T22:08:05;3.97;;;3.67;;
32236;SDS011;18726;44.732;10.550;2022-09-21T22:11:08;4.25;;;3.88;;
32236;SDS011;18726;44.732;10.550;2022-09-21T22:14:13;5.00;;;4.50;;
32236;SDS011;18726;44.732;10.550;2022-09-21T22:17:17;5.95;;;4.80;;
32236;SDS011;18726;44.732;10.550;2022-09-21T22:20:21;6.63;;;4.47;;
32236;SDS011;18726;44.732;10.550;2022-09-21T22:23:25;4.35;;;3.95;;
32236;SDS011;18726;44.732;10.550;2022-09-21T22:26:30;5.88;;;4.28;;
32236;SDS011;18726;44.732;10.550;2022-09-21T22:29:37;5.35;;;4.85;;
32236;SDS011;18726;44.732;10.550;2022-09-21T22:32:42;4.72;;;4.32;;
32236;SDS011;18726;44.732;10.550;2022-09-21T22:35:46;5.28;;;4.65;;
32236;SDS011;18726;44.732;10.550;2022-09-21T22:38:51;4.80;;;4.32;;
32236;SDS011;18726;44.732;10.550;2022-09-21T22:41:55;5.03;;;4.63;;
32236;SDS011;18726;44.732;10.550;2022-09-21T22:44:59;5.63;;;5.13;;
32236;SDS011;18726;44.732;10.550;2022-09-21T22:48:03;5.15;;;4.75;;
32236;SDS011;18726;44.732;10.550;2022-09-21T22:51:07;5.40;;;4.90;;
32236;SDS011;18726;44.732;10.550;2022-09-21T22:54:11;5.00;;;4.57;;
32236;SDS011;18726;44.732;10.550;2022-09-21T22:57:15;5.55;;;4.55;;
32236;SDS011;18726;44.732;10.550;2022-09-21T23:00:19;5.07;;;4.57;;
32236;SDS011;18726;44.732;10.550;2022-09-21T23:03:23;4.72;;;4.28;;
32236;SDS011;18726;44.732;10.550;2022-09-21T23:06:28;4.45;;;4.05;;
32236;SDS011;18726;44.732;10.550;2022-09-21T23:09:35;4.50;;;4.10;;
32236;SDS011;18726;44.732;10.550;2022-09-21T23:12:38;4.63;;;4.22;;
32236;SDS011;18726;44.732;10.550;2022-09-21T23:15:43;8.60;;;3.97;;
32236;SDS011;18726;44.732;10.550;2022-09-21T23:18:47;4.75;;;3.78;;